sensor_id;sensor_type;location;lat;lon;timestamp;pressure;altitude;pressure_sealevel;temperature
20867;BMP280;10593;48.398;10.698;2024-02-15T00:02:15;96671.84;;;15.08
20867;BMP280;10593;48.398;10.698;2024-02-15T00:04:41;96675.31;;;15.07
20867;BMP280;10593;48.398;10.698;2024-02-15T00:07:08;96676.22;;;15.06
20867;BMP280;10593;48.398;10.698;2024-02-15T00:09:34;96682.25;;;15.05
20867;BMP280;10593;48.398;10.698;2024-02-15T00:11:59;96677.13;;;15.04
20867;BMP280;10593;48.398;10.698;2024-02-15T00:14:26;96678.03;;;15.03
20867;BMP280;10593;48.398;10.698;2024-02-15T00:16:53;96675.47;;;15.01
20867;BMP280;10593;48.398;10.698;2024-02-15T00:19:19;96678.91;;;15.02
20867;BMP280;10593;48.398;10.698;2024-02-15T00:21:44;96672.06;;;15.01
20867;BMP280;10593;48.398;10.698;2024-02-15T00:24:10;96676.38;;;15.00
20867;BMP280;10593;48.398;10.698;2024-02-15T00:26:36;96679.81;;;15.01
20867;BMP280;10593;48.398;10.698;2024-02-15T00:29:02;96689.31;;;15.00
20867;BMP280;10593;48.398;10.698;2024-02-15T00:31:28;96693.69;;;14.98
20867;BMP280;10593;48.398;10.698;2024-02-15T00:33:53;96698.00;;;14.98
20867;BMP280;10593;48.398;10.698;2024-02-15T00:36:20;96692.00;;;14.96
20867;BMP280;10593;48.398;10.698;2024-02-15T00:38:46;96681.78;;;14.91
20867;BMP280;10593;48.398;10.698;2024-02-15T00:41:11;96687.84;;;14.90
20867;BMP280;10593;48.398;10.698;2024-02-15T00:43:37;96685.34;;;14.87
20867;BMP280;10593;48.398;10.698;2024-02-15T00:46:03;96688.84;;;14.86
20867;BMP280;10593;48.398;10.698;2024-02-15T00:48:29;96688.84;;;14.86
20867;BMP280;10593;48.398;10.698;2024-02-15T00:50:56;96685.44;;;14.84
20867;BMP280;10593;48.398;10.698;2024-02-15T00:53:22;96682.06;;;14.82
20867;BMP280;10593;48.398;10.698;2024-02-15T00:55:48;96676.97;;;14.79
20867;BMP280;10593;48.398;10.698;2024-02-15T00:58:13;96679.59;;;14.78
20867;BMP280;10593;48.398;10.698;2024-02-15T01:00:39;96680.41;;;14.78
20867;BMP280;10593;48.398;10.698;2024-02-15T01:03:05;96672.72;;;14.77
20867;BMP280;10593;48.398;10.698;2024-02-15T01:05:30;96678.00;;;14.74
20867;BMP280;10593;48.398;10.698;2024-02-15T01:07:56;96680.59;;;14.72
20867;BMP280;10593;48.398;10.698;2024-02-15T01:10:22;96676.31;;;14.71
20867;BMP280;10593;48.398;10.698;2024-02-15T01:12:50;96677.22;;;14.70
20867;BMP280;10593;48.398;10.698;2024-02-15T01:15:15;96682.38;;;14.70
20867;BMP280;10593;48.398;10.698;2024-02-15T01:17:44;96687.56;;;14.70
20867;BMP280;10593;48.398;10.698;2024-02-15T01:20:10;96682.38;;;14.70
20867;BMP280;10593;48.398;10.698;2024-02-15T01:22:36;96676.31;;;14.71
20867;BMP280;10593;48.398;10.698;2024-02-15T01:25:02;96678.03;;;14.71
20867;BMP280;10593;48.398;10.698;2024-02-15T01:27:28;96684.09;;;14.71
20867;BMP280;10593;48.398;10.698;2024-02-15T01:29:57;96676.31;;;14.71
20867;BMP280;10593;48.398;10.698;2024-02-15T01:32:23;96686.66;;;14.71
20867;BMP280;10593;48.398;10.698;2024-02-15T01:34:48;96690.13;;;14.72
20867;BMP280;10593;48.398;10.698;2024-02-15T01:37:16;96686.66;;;14.71
20867;BMP280;10593;48.398;10.698;2024-02-15T01:39:42;96692.72;;;14.72
20867;BMP280;10593;48.398;10.698;2024-02-15T01:42:08;96689.25;;;14.71
20867;BMP280;10593;48.398;10.698;2024-02-15T01:44:34;96681.50;;;14.71
20867;BMP280;10593;48.398;10.698;2024-02-15T01:47:02;96683.19;;;14.72
20867;BMP280;10593;48.398;10.698;2024-02-15T01:49:29;96683.22;;;14.71
20867;BMP280;10593;48.398;10.698;2024-02-15T01:51:56;96677.19;;;14.72
20867;BMP280;10593;48.398;10.698;2024-02-15T01:54:24;96677.19;;;14.72
20867;BMP280;10593;48.398;10.698;2024-02-15T01:56:50;96676.31;;;14.71
20867;BMP280;10593;48.398;10.698;2024-02-15T01:59:16;96670.28;;;14.71
20867;BMP280;10593;48.398;10.698;2024-02-15T02:01:43;96662.53;;;14.71
20867;BMP280;10593;48.398;10.698;2024-02-15T02:04:10;96658.25;;;14.70
20867;BMP280;10593;48.398;10.698;2024-02-15T02:06:37;96651.34;;;14.70
20867;BMP280;10593;48.398;10.698;2024-02-15T02:09:03;96648.78;;;14.69
20867;BMP280;10593;48.398;10.698;2024-02-15T02:11:30;96648.78;;;14.69
20867;BMP280;10593;48.398;10.698;2024-02-15T02:13:56;96651.44;;;14.68
20867;BMP280;10593;48.398;10.698;2024-02-15T02:16:31;96650.63;;;14.66
20867;BMP280;10593;48.398;10.698;2024-02-15T02:18:58;96649.81;;;14.63
20867;BMP280;10593;48.398;10.698;2024-02-15T02:21:26;96654.09;;;14.64
20867;BMP280;10593;48.398;10.698;2024-02-15T02:23:56;96642.91;;;14.64
20867;BMP280;10593;48.398;10.698;2024-02-15T02:26:23;96649.81;;;14.63
20867;BMP280;10593;48.398;10.698;2024-02-15T02:28:51;96651.56;;;14.63
20867;BMP280;10593;48.398;10.698;2024-02-15T02:31:20;96637.75;;;14.63
20867;BMP280;10593;48.398;10.698;2024-02-15T02:33:53;96642.03;;;14.63
20867;BMP280;10593;48.398;10.698;2024-02-15T02:36:19;96642.94;;;14.63
20867;BMP280;10593;48.398;10.698;2024-02-15T02:38:45;96637.84;;;14.60
20867;BMP280;10593;48.398;10.698;2024-02-15T02:41:12;96642.13;;;14.61
20867;BMP280;10593;48.398;10.698;2024-02-15T02:43:40;96640.47;;;14.58
20867;BMP280;10593;48.398;10.698;2024-02-15T02:46:09;96637.03;;;14.59
20867;BMP280;10593;48.398;10.698;2024-02-15T02:48:39;96649.09;;;14.59
20867;BMP280;10593;48.398;10.698;2024-02-15T02:51:07;96643.03;;;14.60
20867;BMP280;10593;48.398;10.698;2024-02-15T02:53:33;96646.41;;;14.62
20867;BMP280;10593;48.398;10.698;2024-02-15T02:55:59;96647.28;;;14.62
20867;BMP280;10593;48.398;10.698;2024-02-15T02:58:25;96641.25;;;14.62
20867;BMP280;10593;48.398;10.698;2024-02-15T03:00:52;96644.63;;;14.63
20867;BMP280;10593;48.398;10.698;2024-02-15T03:03:18;96654.06;;;14.66
20867;BMP280;10593;48.398;10.698;2024-02-15T03:05:48;96640.31;;;14.64
20867;BMP280;10593;48.398;10.698;2024-02-15T03:08:14;96648.03;;;14.66
20867;BMP280;10593;48.398;10.698;2024-02-15T03:10:43;96635.97;;;14.64
20867;BMP280;10593;48.398;10.698;2024-02-15T03:13:08;96634.28;;;14.63
20867;BMP280;10593;48.398;10.698;2024-02-15T03:15:37;96628.22;;;14.64
20867;BMP280;10593;48.398;10.698;2024-02-15T03:18:03;96628.28;;;14.63
20867;BMP280;10593;48.398;10.698;2024-02-15T03:20:33;96622.25;;;14.63
20867;BMP280;10593;48.398;10.698;2024-02-15T03:23:01;96632.59;;;14.63
20867;BMP280;10593;48.398;10.698;2024-02-15T03:25:29;96633.47;;;14.62
20867;BMP280;10593;48.398;10.698;2024-02-15T03:27:57;96632.69;;;14.60
20867;BMP280;10593;48.398;10.698;2024-02-15T03:30:26;96631.84;;;14.59
20867;BMP280;10593;48.398;10.698;2024-02-15T03:32:55;96628.44;;;14.57
20867;BMP280;10593;48.398;10.698;2024-02-15T03:35:22;96632.75;;;14.57
20867;BMP280;10593;48.398;10.698;2024-02-15T03:37:52;96626.78;;;14.55
20867;BMP280;10593;48.398;10.698;2024-02-15T03:40:19;96629.44;;;14.52
20867;BMP280;10593;48.398;10.698;2024-02-15T03:42:46;96622.56;;;14.51
20867;BMP280;10593;48.398;10.698;2024-02-15T03:45:18;96629.53;;;14.49
20867;BMP280;10593;48.398;10.698;2024-02-15T03:47:43;96633.00;;;14.48
20867;BMP280;10593;48.398;10.698;2024-02-15T03:50:09;96633.91;;;14.47
20867;BMP280;10593;48.398;10.698;2024-02-15T03:52:36;96632.19;;;14.46
20867;BMP280;10593;48.398;10.698;2024-02-15T03:55:02;96628.81;;;14.44
20867;BMP280;10593;48.398;10.698;2024-02-15T03:57:28;96633.19;;;14.42
20867;BMP280;10593;48.398;10.698;2024-02-15T03:59:55;96628.00;;;14.42
20867;BMP280;10593;48.398;10.698;2024-02-15T04:02:24;96634.97;;;14.40
20867;BMP280;10593;48.398;10.698;2024-02-15T04:04:53;96640.19;;;14.37
20867;BMP280;10593;48.398;10.698;2024-02-15T04:07:21;96644.53;;;14.36
20867;BMP280;10593;48.398;10.698;2024-02-15T04:09:48;96641.06;;;14.36
20867;BMP280;10593;48.398;10.698;2024-02-15T04:12:14;96642.88;;;14.34
20867;BMP280;10593;48.398;10.698;2024-02-15T04:14:40;96638.59;;;14.31
20867;BMP280;10593;48.398;10.698;2024-02-15T04:17:07;96644.66;;;14.30
20867;BMP280;10593;48.398;10.698;2024-02-15T04:19:33;96642.09;;;14.30
20867;BMP280;10593;48.398;10.698;2024-02-15T04:21:58;96644.75;;;14.27
20867;BMP280;10593;48.398;10.698;2024-02-15T04:24:26;96643.94;;;14.25
20867;BMP280;10593;48.398;10.698;2024-02-15T04:26:52;96642.28;;;14.23
20867;BMP280;10593;48.398;10.698;2024-02-15T04:29:18;96634.59;;;14.21
20867;BMP280;10593;48.398;10.698;2024-02-15T04:31:46;96632.03;;;14.20
20867;BMP280;10593;48.398;10.698;2024-02-15T04:34:16;96632.13;;;14.17
20867;BMP280;10593;48.398;10.698;2024-02-15T04:36:46;96633.84;;;14.15
20867;BMP280;10593;48.398;10.698;2024-02-15T04:39:15;96627.91;;;14.11
20867;BMP280;10593;48.398;10.698;2024-02-15T04:41:55;96629.69;;;14.09
20867;BMP280;10593;48.398;10.698;2024-02-15T04:44:21;96634.06;;;14.07
20867;BMP280;10593;48.398;10.698;2024-02-15T04:46:48;96628.09;;;14.05
20867;BMP280;10593;48.398;10.698;2024-02-15T04:49:15;96637.56;;;14.05
20867;BMP280;10593;48.398;10.698;2024-02-15T04:51:41;96642.75;;;14.03
20867;BMP280;10593;48.398;10.698;2024-02-15T04:54:07;96636.84;;;14.00
20867;BMP280;10593;48.398;10.698;2024-02-15T04:56:34;96644.59;;;14.00
20867;BMP280;10593;48.398;10.698;2024-02-15T04:59:01;96649.81;;;13.97
20867;BMP280;10593;48.398;10.698;2024-02-15T05:01:27;96634.34;;;13.95
20867;BMP280;10593;48.398;10.698;2024-02-15T05:03:54;96636.13;;;13.93
20867;BMP280;10593;48.398;10.698;2024-02-15T05:06:21;96637.03;;;13.92
20867;BMP280;10593;48.398;10.698;2024-02-15T05:08:47;96645.63;;;13.91
20867;BMP280;10593;48.398;10.698;2024-02-15T05:11:12;96640.53;;;13.88
20867;BMP280;10593;48.398;10.698;2024-02-15T05:13:44;96640.59;;;13.87
20867;BMP280;10593;48.398;10.698;2024-02-15T05:16:10;96643.22;;;13.85
20867;BMP280;10593;48.398;10.698;2024-02-15T05:18:36;96631.19;;;13.83
20867;BMP280;10593;48.398;10.698;2024-02-15T05:21:04;96629.50;;;13.82
20867;BMP280;10593;48.398;10.698;2024-02-15T05:23:30;96632.19;;;13.79
20867;BMP280;10593;48.398;10.698;2024-02-15T05:25:56;96636.53;;;13.77
20867;BMP280;10593;48.398;10.698;2024-02-15T05:28:22;96634.84;;;13.76
20867;BMP280;10593;48.398;10.698;2024-02-15T05:31:17;96639.19;;;13.74
20867;BMP280;10593;48.398;10.698;2024-02-15T05:33:44;96636.66;;;13.71
20867;BMP280;10593;48.398;10.698;2024-02-15T05:36:20;96632.44;;;13.68
20867;BMP280;10593;48.398;10.698;2024-02-15T05:38:54;96633.34;;;13.66
20867;BMP280;10593;48.398;10.698;2024-02-15T05:41:20;96641.97;;;13.65
20867;BMP280;10593;48.398;10.698;2024-02-15T05:43:47;96639.47;;;13.62
20867;BMP280;10593;48.398;10.698;2024-02-15T05:46:19;96647.25;;;13.60
20867;BMP280;10593;48.398;10.698;2024-02-15T05:48:47;96642.97;;;13.59
20867;BMP280;10593;48.398;10.698;2024-02-15T05:51:13;96644.75;;;13.57
20867;BMP280;10593;48.398;10.698;2024-02-15T05:53:38;96642.19;;;13.56
20867;BMP280;10593;48.398;10.698;2024-02-15T05:56:06;96641.38;;;13.54
20867;BMP280;10593;48.398;10.698;2024-02-15T05:58:33;96645.72;;;13.52
20867;BMP280;10593;48.398;10.698;2024-02-15T06:01:00;96641.47;;;13.49
20867;BMP280;10593;48.398;10.698;2024-02-15T06:03:32;96641.56;;;13.46
20867;BMP280;10593;48.398;10.698;2024-02-15T06:06:00;96636.44;;;13.45
20867;BMP280;10593;48.398;10.698;2024-02-15T06:08:28;96640.75;;;13.43
20867;BMP280;10593;48.398;10.698;2024-02-15T06:10:57;96640.84;;;13.40
20867;BMP280;10593;48.398;10.698;2024-02-15T06:13:23;96640.03;;;13.38
20867;BMP280;10593;48.398;10.698;2024-02-15T06:15:50;96645.22;;;13.36
20867;BMP280;10593;48.398;10.698;2024-02-15T06:18:20;96644.44;;;13.33
20867;BMP280;10593;48.398;10.698;2024-02-15T06:20:51;96642.75;;;13.32
20867;BMP280;10593;48.398;10.698;2024-02-15T06:23:17;96648.81;;;13.29
20867;BMP280;10593;48.398;10.698;2024-02-15T06:25:44;96653.13;;;13.29
20867;BMP280;10593;48.398;10.698;2024-02-15T06:28:10;96649.78;;;13.25
20867;BMP280;10593;48.398;10.698;2024-02-15T06:30:45;96654.97;;;13.24
20867;BMP280;10593;48.398;10.698;2024-02-15T06:33:29;96653.38;;;13.18
20867;BMP280;10593;48.398;10.698;2024-02-15T06:36:13;96655.13;;;13.18
20867;BMP280;10593;48.398;10.698;2024-02-15T06:38:57;96657.72;;;13.15
20867;BMP280;10593;48.398;10.698;2024-02-15T06:41:41;96660.28;;;13.16
20867;BMP280;10593;48.398;10.698;2024-02-15T06:44:07;96659.34;;;13.20
20867;BMP280;10593;48.398;10.698;2024-02-15T06:46:33;96659.25;;;13.25
20867;BMP280;10593;48.398;10.698;2024-02-15T06:48:58;96653.13;;;13.29
20867;BMP280;10593;48.398;10.698;2024-02-15T06:51:24;96657.34;;;13.33
20867;BMP280;10593;48.398;10.698;2024-02-15T06:53:50;96658.97;;;13.38
20867;BMP280;10593;48.398;10.698;2024-02-15T06:56:17;96655.38;;;13.44
20867;BMP280;10593;48.398;10.698;2024-02-15T06:58:43;96656.13;;;13.49
20867;BMP280;10593;48.398;10.698;2024-02-15T07:01:09;96654.28;;;13.54
20867;BMP280;10593;48.398;10.698;2024-02-15T07:03:34;96648.09;;;13.61
20867;BMP280;10593;48.398;10.698;2024-02-15T07:06:01;96657.41;;;13.68
20867;BMP280;10593;48.398;10.698;2024-02-15T07:08:28;96660.66;;;13.76
20867;BMP280;10593;48.398;10.698;2024-02-15T07:10:55;96662.19;;;13.84
20867;BMP280;10593;48.398;10.698;2024-02-15T07:13:20;96655.03;;;13.95
20867;BMP280;10593;48.398;10.698;2024-02-15T07:15:46;96658.22;;;14.05
20867;BMP280;10593;48.398;10.698;2024-02-15T07:18:15;96654.41;;;14.21
20867;BMP280;10593;48.398;10.698;2024-02-15T07:20:42;96647.91;;;14.38
20867;BMP280;10593;48.398;10.698;2024-02-15T07:23:08;96652.53;;;14.59
20867;BMP280;10593;48.398;10.698;2024-02-15T07:25:33;96645.06;;;14.79
20867;BMP280;10593;48.398;10.698;2024-02-15T07:28:00;96644.50;;;14.98
20867;BMP280;10593;48.398;10.698;2024-02-15T07:30:25;96643.06;;;15.17
20867;BMP280;10593;48.398;10.698;2024-02-15T07:32:51;96638.25;;;15.36
20867;BMP280;10593;48.398;10.698;2024-02-15T07:35:17;96639.41;;;15.55
20867;BMP280;10593;48.398;10.698;2024-02-15T07:37:53;96640.50;;;15.74
20867;BMP280;10593;48.398;10.698;2024-02-15T07:40:22;96645.03;;;15.95
20867;BMP280;10593;48.398;10.698;2024-02-15T07:42:48;96629.59;;;16.16
20867;BMP280;10593;48.398;10.698;2024-02-15T07:45:14;96638.34;;;16.40
20867;BMP280;10593;48.398;10.698;2024-02-15T07:47:40;96630.53;;;16.64
20867;BMP280;10593;48.398;10.698;2024-02-15T07:50:06;96634.28;;;16.80
20867;BMP280;10593;48.398;10.698;2024-02-15T07:52:35;96635.78;;;16.87
20867;BMP280;10593;48.398;10.698;2024-02-15T07:55:01;96636.44;;;16.92
20867;BMP280;10593;48.398;10.698;2024-02-15T07:57:34;96626.91;;;16.92
20867;BMP280;10593;48.398;10.698;2024-02-15T08:00:00;96630.53;;;16.88
20867;BMP280;10593;48.398;10.698;2024-02-15T08:02:25;96631.59;;;16.83
20867;BMP280;10593;48.398;10.698;2024-02-15T08:04:54;96625.91;;;16.74
20867;BMP280;10593;48.398;10.698;2024-02-15T08:07:20;96628.69;;;16.68
20867;BMP280;10593;48.398;10.698;2024-02-15T08:09:46;96630.69;;;16.60
20867;BMP280;10593;48.398;10.698;2024-02-15T08:12:16;96630.19;;;16.50
20867;BMP280;10593;48.398;10.698;2024-02-15T08:14:42;96631.34;;;16.42
20867;BMP280;10593;48.398;10.698;2024-02-15T08:17:08;96626.53;;;16.30
20867;BMP280;10593;48.398;10.698;2024-02-15T08:19:34;96632.91;;;16.20
20867;BMP280;10593;48.398;10.698;2024-02-15T08:22:05;96622.91;;;16.09
20867;BMP280;10593;48.398;10.698;2024-02-15T08:24:31;96628.44;;;16.00
20867;BMP280;10593;48.398;10.698;2024-02-15T08:26:56;96625.25;;;15.91
20867;BMP280;10593;48.398;10.698;2024-02-15T08:29:25;96618.63;;;15.82
20867;BMP280;10593;48.398;10.698;2024-02-15T08:31:51;96622.38;;;15.74
20867;BMP280;10593;48.398;10.698;2024-02-15T08:34:16;96621.72;;;15.67
20867;BMP280;10593;48.398;10.698;2024-02-15T08:36:44;96615.88;;;15.61
20867;BMP280;10593;48.398;10.698;2024-02-15T08:39:10;96605.75;;;15.53
20867;BMP280;10593;48.398;10.698;2024-02-15T08:41:38;96611.13;;;15.47
20867;BMP280;10593;48.398;10.698;2024-02-15T08:44:05;96613.00;;;15.42
20867;BMP280;10593;48.398;10.698;2024-02-15T08:46:37;96608.03;;;15.36
20867;BMP280;10593;48.398;10.698;2024-02-15T08:49:03;96602.09;;;15.33
20867;BMP280;10593;48.398;10.698;2024-02-15T08:51:29;96604.78;;;15.28
20867;BMP280;10593;48.398;10.698;2024-02-15T08:53:58;96594.53;;;15.25
20867;BMP280;10593;48.398;10.698;2024-02-15T08:56:25;96599.72;;;15.24
20867;BMP280;10593;48.398;10.698;2024-02-15T08:58:51;96599.78;;;15.22
20867;BMP280;10593;48.398;10.698;2024-02-15T09:01:16;96589.53;;;15.19
20867;BMP280;10593;48.398;10.698;2024-02-15T09:03:42;96593.00;;;15.18
20867;BMP280;10593;48.398;10.698;2024-02-15T09:06:08;96587.88;;;15.17
20867;BMP280;10593;48.398;10.698;2024-02-15T09:08:34;96597.44;;;15.15
20867;BMP280;10593;48.398;10.698;2024-02-15T09:11:00;96592.28;;;15.13
20867;BMP280;10593;48.398;10.698;2024-02-15T09:13:25;96583.63;;;15.14
20867;BMP280;10593;48.398;10.698;2024-02-15T09:15:51;96589.69;;;15.15
20867;BMP280;10593;48.398;10.698;2024-02-15T09:18:16;96581.03;;;15.14
20867;BMP280;10593;48.398;10.698;2024-02-15T09:20:48;96581.03;;;15.14
20867;BMP280;10593;48.398;10.698;2024-02-15T09:23:21;96571.59;;;15.13
20867;BMP280;10593;48.398;10.698;2024-02-15T09:25:49;96570.75;;;15.13
20867;BMP280;10593;48.398;10.698;2024-02-15T09:28:20;96567.28;;;15.14
20867;BMP280;10593;48.398;10.698;2024-02-15T09:30:49;96564.63;;;15.15
20867;BMP280;10593;48.398;10.698;2024-02-15T09:33:19;96560.22;;;15.17
20867;BMP280;10593;48.398;10.698;2024-02-15T09:35:45;96566.25;;;15.19
20867;BMP280;10593;48.398;10.698;2024-02-15T09:38:11;96558.41;;;15.21
20867;BMP280;10593;48.398;10.698;2024-02-15T09:40:37;96559.19;;;15.23
20867;BMP280;10593;48.398;10.698;2024-02-15T09:43:03;96556.56;;;15.24
20867;BMP280;10593;48.398;10.698;2024-02-15T09:45:29;96546.22;;;15.24
20867;BMP280;10593;48.398;10.698;2024-02-15T09:48:03;96545.22;;;15.28
20867;BMP280;10593;48.398;10.698;2024-02-15T09:50:34;96545.22;;;15.30
20867;BMP280;10593;48.398;10.698;2024-02-15T09:53:00;96544.28;;;15.32
20867;BMP280;10593;48.398;10.698;2024-02-15T09:55:28;96544.19;;;15.35
20867;BMP280;10593;48.398;10.698;2024-02-15T09:57:55;96535.41;;;15.39
20867;BMP280;10593;48.398;10.698;2024-02-15T10:00:20;96532.72;;;15.42
20867;BMP280;10593;48.398;10.698;2024-02-15T10:02:53;96534.34;;;15.46
20867;BMP280;10593;48.398;10.698;2024-02-15T10:05:19;96524.78;;;15.48
20867;BMP280;10593;48.398;10.698;2024-02-15T10:07:45;96522.88;;;15.53
20867;BMP280;10593;48.398;10.698;2024-02-15T10:12:52;96526.06;;;15.61
20867;BMP280;10593;48.398;10.698;2024-02-15T10:15:47;96521.56;;;15.66
20867;BMP280;10593;48.398;10.698;2024-02-15T10:18:13;96515.38;;;15.70
20867;BMP280;10593;48.398;10.698;2024-02-15T10:20:42;96516.13;;;15.74
20867;BMP280;10593;48.398;10.698;2024-02-15T10:23:15;96511.69;;;15.77
20867;BMP280;10593;48.398;10.698;2024-02-15T10:25:44;96506.41;;;15.80
20867;BMP280;10593;48.398;10.698;2024-02-15T10:28:12;96509.75;;;15.84
20867;BMP280;10593;48.398;10.698;2024-02-15T10:30:40;96508.81;;;15.86
20867;BMP280;10593;48.398;10.698;2024-02-15T10:35:49;96506.00;;;15.92
20867;BMP280;10593;48.398;10.698;2024-02-15T10:38:15;96500.69;;;15.95
20867;BMP280;10593;48.398;10.698;2024-02-15T10:40:41;96499.75;;;15.98
20867;BMP280;10593;48.398;10.698;2024-02-15T10:43:10;96495.31;;;16.01
20867;BMP280;10593;48.398;10.698;2024-02-15T10:45:39;96484.84;;;16.04
20867;BMP280;10593;48.398;10.698;2024-02-15T10:48:08;96482.09;;;16.09
20867;BMP280;10593;48.398;10.698;2024-02-15T10:50:35;96480.28;;;16.11
20867;BMP280;10593;48.398;10.698;2024-02-15T10:53:29;96485.31;;;16.15
20867;BMP280;10593;48.398;10.698;2024-02-15T10:58:42;96471.22;;;16.22
20867;BMP280;10593;48.398;10.698;2024-02-15T11:01:17;96471.91;;;16.27
20867;BMP280;10593;48.398;10.698;2024-02-15T11:03:59;96464.78;;;16.32
20867;BMP280;10593;48.398;10.698;2024-02-15T11:06:27;96454.34;;;16.35
20867;BMP280;10593;48.398;10.698;2024-02-15T11:08:55;96457.63;;;16.40
20867;BMP280;10593;48.398;10.698;2024-02-15T11:11:22;96450.50;;;16.45
20867;BMP280;10593;48.398;10.698;2024-02-15T11:13:48;96453.66;;;16.53
20867;BMP280;10593;48.398;10.698;2024-02-15T11:16:41;96451.75;;;16.58
20867;BMP280;10593;48.398;10.698;2024-02-15T11:19:07;96442.88;;;16.64
20867;BMP280;10593;48.398;10.698;2024-02-15T11:24:31;96434.72;;;16.73
20867;BMP280;10593;48.398;10.698;2024-02-15T11:27:05;96438.00;;;16.78
20867;BMP280;10593;48.398;10.698;2024-02-15T11:29:56;96438.63;;;16.84
20867;BMP280;10593;48.398;10.698;2024-02-15T11:32:45;96431.47;;;16.89
20867;BMP280;10593;48.398;10.698;2024-02-15T11:35:24;96424.44;;;16.92
20867;BMP280;10593;48.398;10.698;2024-02-15T11:40:17;96421.56;;;16.98
20867;BMP280;10593;48.398;10.698;2024-02-15T11:42:46;96414.50;;;17.02
20867;BMP280;10593;48.398;10.698;2024-02-15T11:45:15;96408.28;;;17.06
20867;BMP280;10593;48.398;10.698;2024-02-15T11:47:47;96411.59;;;17.09
20867;BMP280;10593;48.398;10.698;2024-02-15T11:50:17;96404.59;;;17.11
20867;BMP280;10593;48.398;10.698;2024-02-15T11:52:48;96404.41;;;17.16
20867;BMP280;10593;48.398;10.698;2024-02-15T11:55:23;96404.28;;;17.19
20867;BMP280;10593;48.398;10.698;2024-02-15T11:57:58;96399.00;;;17.22
20867;BMP280;10593;48.398;10.698;2024-02-15T12:00:42;96398.84;;;17.25
20867;BMP280;10593;48.398;10.698;2024-02-15T12:03:27;96390.97;;;17.26
20867;BMP280;10593;48.398;10.698;2024-02-15T12:06:17;96384.81;;;17.29
20867;BMP280;10593;48.398;10.698;2024-02-15T12:09:02;96376.91;;;17.32
20867;BMP280;10593;48.398;10.698;2024-02-15T12:11:46;96373.38;;;17.33
20867;BMP280;10593;48.398;10.698;2024-02-15T12:14:31;96372.47;;;17.35
20867;BMP280;10593;48.398;10.698;2024-02-15T12:17:15;96372.31;;;17.38
20867;BMP280;10593;48.398;10.698;2024-02-15T12:20:04;96371.31;;;17.42
20867;BMP280;10593;48.398;10.698;2024-02-15T12:22:48;96370.22;;;17.48
20867;BMP280;10593;48.398;10.698;2024-02-15T12:25:17;96359.59;;;17.52
20867;BMP280;10593;48.398;10.698;2024-02-15T12:27:52;96370.66;;;17.57
20867;BMP280;10593;48.398;10.698;2024-02-15T12:30:19;96357.38;;;17.63
20867;BMP280;10593;48.398;10.698;2024-02-15T12:32:52;96367.63;;;17.66
20867;BMP280;10593;48.398;10.698;2024-02-15T12:35:22;96366.53;;;17.72
20867;BMP280;10593;48.398;10.698;2024-02-15T12:40:32;96361.00;;;17.79
20867;BMP280;10593;48.398;10.698;2024-02-15T12:42:58;96362.63;;;17.82
20867;BMP280;10593;48.398;10.698;2024-02-15T12:45:26;96367.69;;;17.85
20867;BMP280;10593;48.398;10.698;2024-02-15T12:47:56;96364.06;;;17.89
20867;BMP280;10593;48.398;10.698;2024-02-15T12:50:27;96363.91;;;17.92
20867;BMP280;10593;48.398;10.698;2024-02-15T12:52:54;96362.84;;;17.96
20867;BMP280;10593;48.398;10.698;2024-02-15T12:55:30;96344.59;;;17.97
20867;BMP280;10593;48.398;10.698;2024-02-15T12:58:02;96341.91;;;17.99
20867;BMP280;10593;48.398;10.698;2024-02-15T13:00:35;96340.03;;;18.02
20867;BMP280;10593;48.398;10.698;2024-02-15T13:03:07;96335.59;;;18.04
20867;BMP280;10593;48.398;10.698;2024-02-15T13:05:38;96340.78;;;18.04
20867;BMP280;10593;48.398;10.698;2024-02-15T13:08:04;96338.03;;;18.07
20867;BMP280;10593;48.398;10.698;2024-02-15T13:10:31;96328.44;;;18.09
20867;BMP280;10593;48.398;10.698;2024-02-15T13:12:57;96326.66;;;18.10
20867;BMP280;10593;48.398;10.698;2024-02-15T13:15:24;96327.44;;;18.12
20867;BMP280;10593;48.398;10.698;2024-02-15T13:17:59;96323.84;;;18.14
20867;BMP280;10593;48.398;10.698;2024-02-15T13:20:26;96318.59;;;18.16
20867;BMP280;10593;48.398;10.698;2024-02-15T13:23:09;96311.56;;;18.18
20867;BMP280;10593;48.398;10.698;2024-02-15T13:25:41;96304.53;;;18.20
20867;BMP280;10593;48.398;10.698;2024-02-15T13:28:09;96300.94;;;18.22
20867;BMP280;10593;48.398;10.698;2024-02-15T13:30:38;96299.94;;;18.25
20867;BMP280;10593;48.398;10.698;2024-02-15T13:33:05;96299.81;;;18.28
20867;BMP280;10593;48.398;10.698;2024-02-15T13:35:32;96298.03;;;18.30
20867;BMP280;10593;48.398;10.698;2024-02-15T13:37:58;96300.47;;;18.33
20867;BMP280;10593;48.398;10.698;2024-02-15T13:40:28;96291.75;;;18.34
20867;BMP280;10593;48.398;10.698;2024-02-15T13:42:57;96289.91;;;18.36
20867;BMP280;10593;48.398;10.698;2024-02-15T13:45:32;96289.00;;;18.37
20867;BMP280;10593;48.398;10.698;2024-02-15T13:48:02;96288.09;;;18.38
20867;BMP280;10593;48.398;10.698;2024-02-15T13:50:29;96284.56;;;18.39
20867;BMP280;10593;48.398;10.698;2024-02-15T13:52:55;96286.25;;;18.40
20867;BMP280;10593;48.398;10.698;2024-02-15T13:55:21;96288.84;;;18.40
20867;BMP280;10593;48.398;10.698;2024-02-15T13:57:48;96287.03;;;18.42
20867;BMP280;10593;48.398;10.698;2024-02-15T14:00:17;96290.41;;;18.44
20867;BMP280;10593;48.398;10.698;2024-02-15T14:02:56;96279.16;;;18.43
20867;BMP280;10593;48.398;10.698;2024-02-15T14:05:25;96269.59;;;18.44
20867;BMP280;10593;48.398;10.698;2024-02-15T14:07:59;96281.69;;;18.45
20867;BMP280;10593;48.398;10.698;2024-02-15T14:10:28;96268.69;;;18.45
20867;BMP280;10593;48.398;10.698;2024-02-15T14:12:54;96265.97;;;18.46
20867;BMP280;10593;48.398;10.698;2024-02-15T14:15:21;96262.47;;;18.47
20867;BMP280;10593;48.398;10.698;2024-02-15T14:17:47;96258.09;;;18.48
20867;BMP280;10593;48.398;10.698;2024-02-15T14:20:13;96261.47;;;18.50
20867;BMP280;10593;48.398;10.698;2024-02-15T14:22:50;96256.22;;;18.51